Time;durP1;ratioP1;P1;durP2;ratioP2;P2;SDS_P1;SDS_P2;PMS_P1;PMS_P2;Temp;Humidity;BMP_temperature;BMP_pressure;BME280_temperature;BME280_humidity;BME280_pressure;Samples;Min_cycle;Max_cycle;Signal;HPM_P1;HPM_P2
2023/09/28 07:23:12;;;;;;;13.27;4.55;;;;;;;-145.79;86.59;77313.69;5288311;28;20386;-71
2023/09/28 07:25:43;;;;;;;9.40;4.20;;;;;;;-145.79;86.41;77305.22;5291306;28;20031;-71
2023/09/28 07:28:15;;;;;;;9.55;4.68;;;;;;;-145.79;86.23;77313.69;5282896;28;20484;-69
2023/09/28 07:30:47;;;;;;;9.07;4.18;;;;;;;-145.79;86.72;77303.09;5269911;28;20060;-70
2023/09/28 07:33:18;;;;;;;12.68;4.88;;;;;;;-145.79;86.45;77334.88;5271833;28;20102;-69
2023/09/28 07:35:49;;;;;;;17.17;5.20;;;;;;;-145.79;86.67;77330.66;5282788;28;20111;-71
2023/09/28 07:38:21;;;;;;;13.45;5.00;;;;;;;-145.79;86.70;77341.25;5275040;28;20032;-72
2023/09/28 07:40:54;;;;;;;14.52;5.25;;;;;;;-145.79;87.33;77326.41;5288241;28;20209;-72
2023/09/28 07:43:26;;;;;;;15.77;4.95;;;;;;;-145.79;86.67;77322.16;5292273;28;20032;-72
2023/09/28 07:45:57;;;;;;;11.00;4.72;;;;;;;-145.79;86.40;77313.69;5283595;28;20070;-70
2023/09/28 07:48:29;;;;;;;14.02;4.95;;;;;;;-145.79;85.47;77305.22;5293476;28;20071;-72
2023/09/28 07:51:00;;;;;;;14.70;4.80;;;;;;;-145.79;85.28;77296.72;5281902;28;20093;-71
2023/09/28 07:53:31;;;;;;;12.05;4.43;;;;;;;-145.79;84.97;77296.72;5288005;28;20029;-70
2023/09/28 07:56:04;;;;;;;15.35;5.70;;;;;;;-145.79;84.27;77288.25;5288972;28;20064;-69
2023/09/28 07:58:35;;;;;;;13.05;4.90;;;;;;;-145.79;84.50;77294.59;5291219;28;20096;-69
2023/09/28 08:01:06;;;;;;;18.45;6.20;;;;;;;-145.79;84.36;77286.13;5289447;28;20032;-70
2023/09/28 08:03:38;;;;;;;15.65;5.18;;;;;;;-145.79;83.90;77275.53;5282099;28;20029;-68
2023/09/28 08:06:10;;;;;;;10.98;4.32;;;;;;;-145.79;83.26;77277.66;5291036;28;20039;-71
2023/09/28 08:08:42;;;;;;;13.02;4.50;;;;;;;-145.79;82.23;77277.66;5284947;28;20044;-70
2023/09/28 08:11:14;;;;;;;12.52;4.60;;;;;;;-145.79;82.43;77271.28;5277876;28;20075;-70
2023/09/28 08:13:45;;;;;;;16.48;4.75;;;;;;;-145.79;82.59;77262.81;5293736;28;20021;-70
2023/09/28 08:16:17;;;;;;;16.65;5.28;;;;;;;-145.79;82.08;77275.53;5287190;28;20476;-70
2023/09/28 08:18:48;;;;;;;12.88;4.53;;;;;;;-145.79;81.35;77267.06;5291233;28;20028;-70
2023/09/28 08:21:20;;;;;;;18.17;5.22;;;;;;;-145.79;80.99;77262.81;5290375;28;20101;-71
2023/09/28 08:23:51;;;;;;;16.05;6.32;;;;;;;-145.79;79.45;77267.06;5283556;28;20016;-71
2023/09/28 08:26:22;;;;;;;12.63;4.93;;;;;;;-145.79;79.71;77260.69;5290613;28;20031;-70
2023/09/28 08:28:54;;;;;;;9.50;3.92;;;;;;;-145.79;79.58;77256.47;5287307;28;20373;-71
2023/09/28 08:31:26;;;;;;;19.60;5.35;;;;;;;-145.79;79.34;77258.56;5280652;28;20025;-71
2023/09/28 08:34:01;;;;;;;14.30;5.95;;;;;;;-145.79;79.22;77250.09;5280753;28;20025;-71
2023/09/28 08:36:33;;;;;;;17.30;5.15;;;;;;;-145.79;78.77;77247.97;5272955;28;20017;-71
2023/09/28 08:39:06;;;;;;;12.38;4.97;;;;;;;-145.79;78.93;77237.38;5257136;28;20082;-72
2023/09/28 08:41:45;;;;;;;13.98;4.72;;;;;;;-145.79;78.59;77243.75;5270830;28;20028;-72
2023/09/28 08:44:20;;;;;;;12.32;4.80;;;;;;;-145.79;77.94;77241.63;5271974;28;20029;-72
2023/09/28 08:46:58;;;;;;;14.25;4.85;;;;;;;-145.79;76.46;77250.09;5273864;28;20489;-72
2023/09/28 08:49:29;;;;;;;12.63;4.40;;;;;;;-145.79;75.78;77245.84;5273087;28;20460;-73
2023/09/28 08:52:02;;;;;;;15.98;4.32;;;;;;;-145.79;74.87;77258.56;5272834;28;20022;-73
2023/09/28 08:54:33;;;;;;;16.77;5.55;;;;;;;-145.79;74.50;77275.53;5277132;28;20082;-73
2023/09/28 08:57:05;;;;;;;12.15;5.38;;;;;;;-145.79;74.93;77288.25;5271853;28;21588;-73
2023/09/28 08:59:37;;;;;;;12.60;6.30;;;;;;;-145.79;75.31;77284.00;5265223;28;20435;-73
2023/09/28 09:02:09;;;;;;;14.82;8.15;;;;;;;-145.79;75.10;77284.00;5266011;28;20075;-72
2023/09/28 09:04:42;;;;;;;17.52;6.25;;;;;;;-145.79;75.04;77284.00;5276587;28;20056;-72
2023/09/28 09:07:14;;;;;;;21.17;7.72;;;;;;;-145.79;75.39;77271.28;5274297;28;20032;-71
2023/09/28 09:09:46;;;;;;;13.98;5.40;;;;;;;-145.79;75.66;77262.81;5272677;28;20021;-71
2023/09/28 09:12:17;;;;;;;15.77;4.95;;;;;;;-145.79;74.84;77254.34;5270361;28;20028;-71
2023/09/28 09:14:49;;;;;;;18.55;5.55;;;;;;;-145.79;73.71;77260.69;5269528;28;20025;-70
2023/09/28 09:17:20;;;;;;;12.55;4.30;;;;;;;-145.79;73.22;77262.81;5275351;28;20024;-70
2023/09/28 09:19:54;;;;;;;13.82;4.55;;;;;;;-145.79;73.02;77245.84;5271704;28;20028;-73
2023/09/28 09:22:27;;;;;;;13.30;4.72;;;;;;;-145.79;72.18;77235.25;5272155;28;20119;-71
2023/09/28 09:24:58;;;;;;;17.33;5.38;;;;;;;-145.79;72.03;77231.03;5271423;28;20029;-72
2023/09/28 09:27:31;;;;;;;13.32;4.90;;;;;;;-145.79;71.85;77231.03;5270475;28;20475;-72
2023/09/28 09:30:14;;;;;;;10.93;4.00;;;;;;;-145.79;71.56;77224.66;5276309;28;20083;-73
2023/09/28 09:32:47;;;;;;;11.85;4.70;;;;;;;-145.79;70.63;77228.91;5258113;28;20476;-72
2023/09/28 09:35:21;;;;;;;14.73;5.38;;;;;;;-145.79;70.35;77243.75;5274033;28;20032;-73
2023/09/28 09:37:53;;;;;;;15.07;4.90;;;;;;;-145.79;70.03;77228.91;5273240;28;20029;-67
2023/09/28 09:40:25;;;;;;;10.75;4.43;;;;;;;-145.79;70.32;77224.66;5269093;28;20101;-72
2023/09/28 09:43:10;;;;;;;18.92;5.22;;;;;;;-145.79;70.25;77214.06;5260114;28;20053;-75
2023/09/28 09:45:42;;;;;;;12.87;4.67;;;;;;;-145.79;69.41;77226.78;5274920;28;20021;-74
2023/09/28 09:48:14;;;;;;;16.80;5.07;;;;;;;-145.79;69.36;77211.94;5268002;28;20510;-74
2023/09/28 09:50:46;;;;;;;15.32;4.57;;;;;;;-145.79;69.35;77197.09;5268282;28;20060;-75
2023/09/28 09:53:17;;;;;;;22.10;5.75;;;;;;;-145.79;69.34;77190.75;5275418;28;20031;-74
2023/09/28 09:55:50;;;;;;;19.13;5.38;;;;;;;-145.79;69.51;77180.16;5274909;28;20021;-74
2023/09/28 09:58:27;;;;;;;12.98;4.50;;;;;;;-145.79;69.46;77178.03;5271452;28;20464;-76
2023/09/28 10:01:00;;;;;;;16.60;5.25;;;;;;;-145.79;68.14;77188.63;5271547;28;20537;-74
2023/09/28 10:03:32;;;;;;;13.13;4.70;;;;;;;-145.79;67.61;77186.50;5274418;28;20099;-74
2023/09/28 10:06:04;;;;;;;12.23;4.07;;;;;;;-145.79;67.39;77186.50;5274325;28;20095;-75
2023/09/28 10:08:35;;;;;;;12.45;4.32;;;;;;;-145.79;67.10;77180.16;5270387;28;20025;-75
2023/09/28 10:11:08;;;;;;;14.85;5.60;;;;;;;-145.79;67.72;77171.69;5271329;28;20112;-75
2023/09/28 10:13:40;;;;;;;11.60;4.00;;;;;;;-145.79;67.53;77152.59;5275312;28;20515;-75
2023/09/28 10:16:15;;;;;;;11.27;4.90;;;;;;;-145.79;67.05;77127.16;5275104;28;20031;-74
2023/09/28 10:18:49;;;;;;;8.98;4.53;;;;;;;-145.79;65.85;77139.88;5263395;28;20037;-74
2023/09/28 10:21:20;;;;;;;15.65;5.43;;;;;;;-145.79;65.93;77127.16;5271466;28;20053;-74
2023/09/28 10:23:57;;;;;;;16.98;7.22;;;;;;;-145.79;65.71;77118.69;5271371;28;20025;-75
2023/09/28 10:26:31;;;;;;;13.82;4.88;;;;;;;-145.79;65.20;77116.56;5270522;28;20028;-74
2023/09/28 10:29:07;;;;;;;16.27;4.75;;;;;;;-145.79;64.86;77120.81;5267361;28;20025;-75
2023/09/28 10:31:42;;;;;;;13.02;4.43;;;;;;;-145.79;65.01;77116.56;5263856;28;20061;-76
2023/09/28 10:34:20;;;;;;;13.93;4.72;;;;;;;-145.79;65.23;77110.22;5272979;28;20025;-75
2023/09/28 10:37:18;;;;;;;10.68;4.30;;;;;;;-145.79;65.42;77118.69;5272204;28;20034;-75
2023/09/28 10:39:56;;;;;;;16.00;4.57;;;;;;;-145.79;65.39;77112.31;5260501;28;20598;-73
2023/09/28 10:42:29;;;;;;;14.80;7.07;;;;;;;-145.79;65.27;77089.00;5274469;28;20047;-73
2023/09/28 10:45:05;;;;;;;16.52;4.18;;;;;;;-145.79;65.25;77097.50;5262782;28;20395;-74
2023/09/28 10:47:37;;;;;;;;;;;;;;;-145.79;65.36;77080.53;5268193;28;20046;-76
2023/09/28 10:50:10;;;;;;;13.30;4.70;;;;;;;-145.79;65.47;77095.38;5260123;28;19920;-74
2023/09/28 10:52:42;;;;;;;17.60;4.30;;;;;;;-145.79;65.41;77089.00;5264077;28;20384;-73
2023/09/28 10:55:15;;;;;;;11.40;4.00;;;;;;;-145.79;64.74;77097.50;5269976;28;20087;-74
2023/09/28 10:57:46;;;;;;;14.13;5.00;;;;;;;-145.79;64.97;77093.25;5260999;28;20444;-73
2023/09/28 11:00:18;;;;;;;13.02;4.07;;;;;;;-145.79;64.71;77101.72;5271589;28;20104;-74
2023/09/28 11:02:52;;;;;;;12.25;5.22;;;;;;;-145.79;65.40;77110.22;5269254;28;20037;-73
2023/09/28 11:05:23;;;;;;;11.75;4.18;;;;;;;-145.79;65.48;77112.31;5270006;28;20029;-74
2023/09/28 11:07:59;;;;;;;12.57;4.70;;;;;;;-145.79;65.74;77110.22;5265055;28;20411;-73
2023/09/28 11:10:30;;;;;;;;;;;;;;;-145.79;65.79;77103.84;5263443;28;20021;-74
2023/09/28 11:13:02;;;;;;;17.23;4.07;;;;;;;-145.79;65.82;77099.63;5260645;28;19935;-73
2023/09/28 11:15:34;;;;;;;15.20;4.85;;;;;;;-145.79;65.52;77093.25;5268411;28;20020;-74
2023/09/28 11:18:05;;;;;;;15.27;5.60;;;;;;;-145.79;65.09;77093.25;5267279;28;20035;-74
2023/09/28 11:20:38;;;;;;;13.80;4.55;;;;;;;-145.79;65.44;77089.00;5267268;28;20504;-74
2023/09/28 11:23:12;;;;;;;12.48;4.90;;;;;;;-145.79;64.67;77086.91;5266512;28;20135;-74
2023/09/28 11:25:44;;;;;;;12.50;4.28;;;;;;;-145.79;64.36;77089.00;5259867;28;20128;-73
2023/09/28 11:28:16;;;;;;;11.50;3.40;;;;;;;-145.79;64.17;77076.31;5254732;28;20029;-77
2023/09/28 11:31:08;;;;;;;12.18;4.03;;;;;;;-145.79;63.54;77063.59;5268193;28;20464;-74
2023/09/28 11:33:40;;;;;;;12.02;4.00;;;;;;;-145.79;62.82;77072.06;5271926;28;20493;-72
2023/09/28 11:36:21;;;;;;;11.65;5.20;;;;;;;-145.79;62.51;77074.19;5269655;28;20029;-72
2023/09/28 11:38:53;;;;;;;11.05;4.00;;;;;;;-145.79;61.43;77067.81;5270486;28;20021;-72
2023/09/28 11:41:24;;;;;;;9.32;3.78;;;;;;;-145.79;61.01;77059.34;5273074;28;20032;-72
2023/09/28 11:43:56;;;;;;;10.38;3.17;;;;;;;-145.79;60.83;77063.59;5258429;28;20092;-72
2023/09/28 11:46:29;;;;;;;10.38;3.47;;;;;;;-145.79;61.01;77059.34;5273748;28;20444;-73
2023/09/28 11:49:09;;;;;;;13.80;4.03;;;;;;;-145.79;61.33;77033.91;5260228;28;20029;-72
2023/09/28 11:51:44;;;;;;;17.45;5.07;;;;;;;-145.79;61.25;77033.91;5269005;28;20013;-74
2023/09/28 11:54:16;;;;;;;13.23;4.55;;;;;;;-145.79;61.62;77033.91;5246569;28;20546;-74
2023/09/28 11:56:49;;;;;;;14.18;5.25;;;;;;;-145.79;61.67;77036.03;5264386;28;20497;-74
2023/09/28 11:59:20;;;;;;;15.20;4.13;;;;;;;-145.79;61.88;77033.91;5273507;28;20127;-73
2023/09/28 12:01:52;;;;;;;61.13;55.03;;;;;;;-145.79;61.79;77025.44;5273033;28;20099;-74
2023/09/28 12:04:24;;;;;;;18.95;6.32;;;;;;;-145.79;61.53;77002.13;5258248;28;20024;-75
2023/09/28 12:06:55;;;;;;;11.70;4.25;;;;;;;-145.79;60.86;76974.56;5265164;28;20029;-76
2023/09/28 12:09:26;;;;;;;15.68;4.63;;;;;;;-145.79;59.83;76961.84;5280143;28;20059;-73
2023/09/28 12:11:58;;;;;;;15.75;3.30;;;;;;;-145.79;60.38;76940.66;5273511;28;20094;-74
2023/09/28 12:14:29;;;;;;;12.65;3.67;;;;;;;-145.79;59.63;76932.19;5276065;28;20025;-72
2023/09/28 12:17:00;;;;;;;10.55;3.55;;;;;;;-145.79;58.64;76910.97;5285038;28;20082;-71
2023/09/28 12:19:32;;;;;;;11.70;3.55;;;;;;;-145.79;58.42;76889.78;5264362;28;20032;-71
2023/09/28 12:22:03;;;;;;;13.15;3.95;;;;;;;-145.79;57.04;76881.31;5267659;28;20090;-71
2023/09/28 12:24:35;;;;;;;8.18;3.17;;;;;;;-145.79;56.51;76866.47;5273158;28;20074;-71
2023/09/28 12:27:07;;;;;;;12.68;6.15;;;;;;;-145.79;55.86;76894.03;5260205;28;20024;-72
2023/09/28 12:29:39;;;;;;;9.70;3.50;;;;;;;-145.79;56.25;76896.16;5273977;28;20029;-74
2023/09/28 12:32:11;;;;;;;10.80;3.85;;;;;;;-145.79;56.17;76891.91;5277061;28;20095;-72
2023/09/28 12:34:42;;;;;;;8.63;3.70;;;;;;;-145.79;56.65;76881.31;5274909;28;20207;-73
2023/09/28 12:37:13;;;;;;;11.68;4.57;;;;;;;-145.79;56.87;76883.44;5270812;28;20032;-73
2023/09/28 12:39:45;;;;;;;11.13;3.95;;;;;;;-145.79;56.19;76872.84;5263921;28;20026;-76
2023/09/28 12:42:16;;;;;;;11.85;3.58;;;;;;;-145.79;55.37;76853.75;5268249;28;20031;-70
2023/09/28 12:44:47;;;;;;;10.00;3.42;;;;;;;-145.79;54.84;76845.28;5274878;28;20099;-72
2023/09/28 12:47:20;;;;;;;8.13;3.30;;;;;;;-145.79;54.60;76855.88;5269191;28;20091;-73
2023/09/28 12:49:51;;;;;;;7.97;3.42;;;;;;;-145.79;54.24;76849.53;5273749;28;20357;-73
2023/09/28 12:52:23;;;;;;;7.95;3.00;;;;;;;-145.79;54.26;76838.94;5276507;28;20107;-72
2023/09/28 12:54:54;;;;;;;10.60;4.68;;;;;;;-145.79;54.18;76830.44;5263458;28;20564;-73
2023/09/28 12:57:26;;;;;;;10.30;4.30;;;;;;;-145.79;54.15;76817.72;5271650;28;20163;-74
2023/09/28 12:59:57;;;;;;;19.17;7.90;;;;;;;-145.79;54.22;76832.56;5272461;28;20036;-72
2023/09/28 13:02:30;;;;;;;10.57;3.55;;;;;;;-145.79;54.30;76819.84;5278595;28;20025;-72
2023/09/28 13:05:02;;;;;;;13.75;4.40;;;;;;;-145.79;54.49;76811.38;5271641;28;20025;-72
2023/09/28 13:07:34;;;;;;;12.60;5.00;;;;;;;-145.79;54.92;76834.69;5276182;28;20161;-71
2023/09/28 13:10:07;;;;;;;8.88;3.08;;;;;;;-145.79;54.80;76828.31;5263989;28;20113;-71
2023/09/28 13:12:41;;;;;;;12.27;3.83;;;;;;;-145.79;55.01;76817.72;5279466;28;20029;-72
2023/09/28 13:15:15;;;;;;;12.23;3.75;;;;;;;-145.79;55.01;76811.38;5273633;28;20449;-71
2023/09/28 13:17:46;;;;;;;9.00;3.55;;;;;;;-145.79;54.41;76802.91;5276157;28;20024;-75
2023/09/28 13:20:26;;;;;;;12.60;4.60;;;;;;;-145.79;54.81;76805.00;5273775;28;20085;-73
2023/09/28 13:22:57;;;;;;;12.10;3.45;;;;;;;-145.79;55.07;76794.41;5271970;28;20052;-71
2023/09/28 13:25:32;;;;;;;9.63;3.55;;;;;;;-145.79;54.73;76788.06;5271376;28;20029;-74
2023/09/28 13:28:07;;;;;;;6.70;3.77;;;;;;;-145.79;55.17;76792.31;5267424;28;20097;-74
2023/09/28 13:30:39;;;;;;;10.02;4.13;;;;;;;-145.79;55.09;76792.31;5269723;28;20032;-73
2023/09/28 13:33:10;;;;;;;10.98;4.05;;;;;;;-145.79;55.31;76785.94;5269029;28;20102;-75
2023/09/28 13:35:42;;;;;;;10.15;4.90;;;;;;;-145.79;55.54;76783.81;5271067;28;20033;-72
2023/09/28 13:38:13;;;;;;;13.52;4.28;;;;;;;-145.79;55.73;76781.69;5273575;28;20498;-71
2023/09/28 13:40:45;;;;;;;82.78;74.88;;;;;;;-145.79;55.18;76815.63;5272707;28;20103;-73
2023/09/28 13:43:17;;;;;;;14.40;8.02;;;;;;;-145.79;55.57;76798.66;5273305;28;20029;-73
2023/09/28 13:45:49;;;;;;;11.77;4.22;;;;;;;-145.79;55.03;76794.41;5271640;28;20050;-73
2023/09/28 13:48:22;;;;;;;10.55;3.47;;;;;;;-145.79;55.41;76790.19;5270446;28;20357;-72
2023/09/28 13:50:55;;;;;;;12.25;5.75;;;;;;;-145.79;54.83;76809.25;5276813;28;20024;-71
2023/09/28 13:53:29;;;;;;;11.27;3.80;;;;;;;-145.79;55.36;76817.72;5268529;28;20388;-71
2023/09/28 13:56:00;;;;;;;12.27;3.88;;;;;;;-145.79;55.55;76809.25;5269559;28;20111;-72
2023/09/28 13:58:32;;;;;;;8.57;3.95;;;;;;;-145.79;55.67;76809.25;5260712;28;20481;-72
2023/09/28 14:01:07;;;;;;;7.82;3.58;;;;;;;-145.79;55.98;76813.50;5267192;28;20037;-74
2023/09/28 14:03:39;;;;;;;13.10;4.40;;;;;;;-145.79;55.07;76826.22;5268965;28;20029;-71
2023/09/28 14:06:11;;;;;;;9.70;3.30;;;;;;;-145.79;55.68;76821.97;5253040;28;20037;-75
2023/09/28 14:08:43;;;;;;;12.25;4.90;;;;;;;-145.79;55.38;76817.72;5269129;28;20031;-72
2023/09/28 14:11:20;;;;;;;8.75;3.85;;;;;;;-145.79;55.36;76805.00;5272212;28;20029;-78
2023/09/28 14:13:52;;;;;;;10.05;3.85;;;;;;;-145.79;54.98;76813.50;5276006;28;20020;-75
2023/09/28 14:16:24;;;;;;;16.52;10.05;;;;;;;-145.79;54.61;76800.78;5272893;28;20116;-77
2023/09/28 14:18:55;;;;;;;8.07;3.50;;;;;;;-145.79;54.47;76805.00;5273497;28;20025;-77
2023/09/28 14:21:28;;;;;;;8.07;3.08;;;;;;;-145.79;54.02;76813.50;5262098;28;20508;-75
2023/09/28 14:24:05;;;;;;;11.45;4.30;;;;;;;-145.79;54.51;76821.97;5260354;28;20026;-75
2023/09/28 14:26:36;;;;;;;8.98;3.65;;;;;;;-145.79;54.61;76824.09;5270532;28;20086;-75
2023/09/28 14:29:08;;;;;;;11.05;4.07;;;;;;;-145.79;54.75;76805.00;5269214;28;20116;-74
2023/09/28 14:31:39;;;;;;;7.28;3.92;;;;;;;-145.79;54.65;76817.72;5269840;28;20033;-75
2023/09/28 14:34:10;;;;;;;9.60;3.88;;;;;;;-145.79;54.81;76830.44;5273245;28;20484;-75
2023/09/28 14:36:41;;;;;;;15.90;6.00;;;;;;;-145.79;54.79;76828.31;5271443;28;20025;-76
2023/09/28 14:39:13;;;;;;;9.98;3.47;;;;;;;-145.79;54.82;76826.22;5263254;28;20064;-75
2023/09/28 14:41:45;;;;;;;8.23;3.50;;;;;;;-145.79;55.23;76832.56;5267775;28;20041;-75
2023/09/28 14:44:16;;;;;;;8.35;3.53;;;;;;;-145.79;55.60;76828.31;5271968;28;20107;-74
2023/09/28 14:46:48;;;;;;;12.13;3.97;;;;;;;-145.79;55.17;76811.38;5263490;28;20024;-75
2023/09/28 14:49:19;;;;;;;9.82;3.83;;;;;;;-145.79;55.07;76800.78;5275631;28;20021;-71
2023/09/28 14:51:50;;;;;;;10.23;4.25;;;;;;;-145.79;55.53;76792.31;5267527;28;20029;-71
2023/09/28 14:54:22;;;;;;;11.07;4.38;;;;;;;-145.79;54.77;76794.41;5266778;28;20083;-72
2023/09/28 14:56:53;;;;;;;9.98;3.85;;;;;;;-145.79;55.00;76794.41;5241169;28;20021;-70
2023/09/28 14:59:24;;;;;;;9.02;3.85;;;;;;;-145.79;55.36;76792.31;5261953;28;20618;-72
2023/09/28 15:01:56;;;;;;;9.05;3.45;;;;;;;-145.79;55.20;76796.53;5265444;28;20032;-72
2023/09/28 15:04:27;;;;;;;7.65;4.45;;;;;;;-145.79;55.17;76790.19;5274012;28;20028;-72
2023/09/28 15:07:00;;;;;;;10.55;3.80;;;;;;;-145.79;55.52;76788.06;5274081;28;20021;-69
2023/09/28 15:09:31;;;;;;;9.10;3.97;;;;;;;-145.79;55.44;76785.94;5258080;28;20082;-70
2023/09/28 15:12:02;;;;;;;9.05;3.25;;;;;;;-145.79;55.36;76794.41;5272576;28;20480;-70
2023/09/28 15:14:37;;;;;;;9.40;3.45;;;;;;;-145.79;55.77;76794.41;5258612;28;20020;-69
2023/09/28 15:17:09;;;;;;;8.63;3.72;;;;;;;-145.79;55.94;76800.78;5265888;28;20404;-71
2023/09/28 15:19:40;;;;;;;10.15;3.88;;;;;;;-145.79;56.57;76792.31;5272393;28;20037;-71
2023/09/28 15:22:11;;;;;;;9.55;4.22;;;;;;;-145.79;56.84;76790.19;5269252;28;20044;-70
2023/09/28 15:24:43;;;;;;;10.65;3.63;;;;;;;-145.79;57.11;76802.91;5273589;28;20037;-71
2023/09/28 15:27:14;;;;;;;13.98;4.53;;;;;;;-145.79;57.16;76800.78;5273127;28;20128;-69
2023/09/28 15:29:45;;;;;;;13.60;5.53;;;;;;;-145.79;57.14;76796.53;5266436;28;20028;-72
2023/09/28 15:32:17;;;;;;;10.52;3.50;;;;;;;-145.79;56.84;76798.66;5264084;28;20822;-70
2023/09/28 15:34:49;;;;;;;10.30;3.28;;;;;;;-145.79;57.32;76802.91;5272201;28;20036;-70
2023/09/28 15:37:21;;;;;;;10.13;3.70;;;;;;;-145.79;57.36;76800.78;5261165;28;20018;-70
2023/09/28 15:39:52;;;;;;;8.35;3.13;;;;;;;-145.79;57.70;76807.13;5274181;28;20536;-70
2023/09/28 15:42:24;;;;;;;13.63;6.05;;;;;;;-145.79;57.92;76817.72;5260033;28;20111;-71
2023/09/28 15:44:55;;;;;;;6.80;3.92;;;;;;;-145.79;58.32;76815.63;5271849;28;20029;-71
2023/09/28 15:47:28;;;;;;;9.85;3.70;;;;;;;-145.79;58.45;76809.25;5253361;28;20023;-70
2023/09/28 15:50:03;;;;;;;12.43;5.30;;;;;;;-145.79;58.37;76834.69;5273504;28;20029;-71
2023/09/28 15:52:35;;;;;;;9.15;3.92;;;;;;;-145.79;58.71;76817.72;5272533;28;20029;-71
2023/09/28 15:55:06;;;;;;;7.72;3.45;;;;;;;-145.79;58.34;76813.50;5273488;28;20029;-72
2023/09/28 15:57:38;;;;;;;9.35;3.47;;;;;;;-145.79;59.30;76821.97;5271958;28;20033;-71
2023/09/28 16:00:12;;;;;;;8.20;3.95;;;;;;;-145.79;59.51;76811.38;5255659;28;20537;-71
2023/09/28 16:02:44;;;;;;;10.20;3.77;;;;;;;-145.79;59.48;76824.09;5269859;28;20128;-71
2023/09/28 16:05:15;;;;;;;12.13;3.85;;;;;;;-145.79;59.35;76811.38;5274667;28;20548;-71
2023/09/28 16:07:47;;;;;;;16.98;4.78;;;;;;;-145.79;59.79;76817.72;5278484;28;20108;-71
2023/09/28 16:10:19;;;;;;;9.93;3.72;;;;;;;-145.79;59.62;76815.63;5265270;28;20036;-71
2023/09/28 16:12:50;;;;;;;11.00;6.22;;;;;;;-145.79;60.26;76824.09;5273038;28;20028;-72
2023/09/28 16:15:21;;;;;;;11.98;3.78;;;;;;;-145.79;60.20;76826.22;5272789;28;20377;-72
2023/09/28 16:17:53;;;;;;;8.45;3.60;;;;;;;-145.79;60.28;76830.44;5273247;28;20422;-69
2023/09/28 16:20:25;;;;;;;11.05;3.75;;;;;;;-145.79;60.37;76834.69;5270560;28;20319;-68
2023/09/28 16:22:56;;;;;;;7.85;3.50;;;;;;;-145.79;60.65;76832.56;5256313;28;20132;-67
2023/09/28 16:25:28;;;;;;;10.30;4.60;;;;;;;-145.79;60.64;76834.69;5255150;28;20075;-68
2023/09/28 16:27:59;;;;;;;12.30;4.93;;;;;;;-145.79;61.29;76826.22;5269194;28;20024;-68
2023/09/28 16:30:30;;;;;;;17.10;5.20;;;;;;;-145.79;61.37;76815.63;5269542;28;20051;-68
2023/09/28 16:33:02;;;;;;;9.95;4.28;;;;;;;-145.79;61.23;76807.13;5268146;28;20113;-68
2023/09/28 16:35:33;;;;;;;10.52;4.10;;;;;;;-145.79;61.60;76817.72;5265525;28;20155;-68
2023/09/28 16:38:05;;;;;;;12.15;4.43;;;;;;;-145.79;61.40;76821.97;5260594;28;20108;-68
2023/09/28 16:40:37;;;;;;;11.23;4.00;;;;;;;-145.79;61.93;76832.56;5276256;28;20051;-68
2023/09/28 16:43:08;;;;;;;14.13;5.45;;;;;;;-145.79;61.57;76843.16;5258968;28;20107;-68
2023/09/28 16:45:40;;;;;;;13.18;6.18;;;;;;;-145.79;62.16;76851.63;5265396;28;20108;-68
2023/09/28 16:48:11;;;;;;;9.32;4.90;;;;;;;-145.79;62.28;76838.94;5264072;28;20525;-67
2023/09/28 16:50:42;;;;;;;13.65;4.57;;;;;;;-145.79;62.81;76851.63;5248409;28;20020;-67
2023/09/28 16:53:14;;;;;;;11.68;4.38;;;;;;;-145.79;61.91;76838.94;5261370;28;20392;-68
